createdAt,value
2022-11-25T00:06:14.724Z,9.47
2022-11-25T00:16:14.840Z,9.41
2022-11-25T00:26:17.781Z,9.23
2022-11-25T00:36:17.794Z,9.06
2022-11-25T00:46:17.863Z,8.92
2022-11-25T00:56:17.884Z,8.80
2022-11-25T01:06:21.480Z,8.70
2022-11-25T01:16:21.904Z,8.61
2022-11-25T01:26:21.890Z,8.57
2022-11-25T01:36:21.871Z,8.55
2022-11-25T01:46:21.994Z,8.66
2022-11-25T01:56:21.919Z,8.87
2022-11-25T02:06:23.562Z,9.11
2022-11-25T02:16:24.024Z,9.32
2022-11-25T02:26:24.444Z,9.49
2022-11-25T02:36:25.105Z,9.63
2022-11-25T02:46:25.216Z,9.77
2022-11-25T02:56:25.050Z,9.90
2022-11-25T03:06:26.211Z,10.01
2022-11-25T03:16:26.060Z,10.08
2022-11-25T03:26:26.518Z,10.11
2022-11-25T03:36:27.288Z,10.15
2022-11-25T03:46:27.684Z,10.21
2022-11-25T03:56:28.249Z,10.31
2022-11-25T04:06:28.815Z,10.46
2022-11-25T04:16:29.272Z,10.61
2022-11-25T04:26:29.495Z,10.64
2022-11-25T04:36:30.150Z,10.53
2022-11-25T04:46:30.324Z,10.45
2022-11-25T04:56:30.957Z,10.39
2022-11-25T05:06:31.390Z,10.27
2022-11-25T05:16:31.612Z,10.11
2022-11-25T05:26:33.794Z,10.00
2022-11-25T05:36:34.379Z,9.90
2022-11-25T05:46:34.496Z,9.78
2022-11-25T05:56:42.151Z,9.63
2022-11-25T06:06:42.476Z,9.51
2022-11-25T06:16:59.259Z,9.42
2022-11-25T06:27:19.035Z,9.37
2022-11-25T06:37:19.175Z,9.33
2022-11-25T06:47:19.317Z,9.28
2022-11-25T06:57:19.300Z,9.24
2022-11-25T07:07:19.274Z,9.21
2022-11-25T07:17:19.335Z,9.22
2022-11-25T07:27:19.326Z,9.25
2022-11-25T07:37:19.388Z,9.28
2022-11-25T07:47:19.356Z,9.23
2022-11-25T07:57:19.448Z,9.18
2022-11-25T08:07:19.400Z,9.31
2022-11-25T08:17:19.349Z,9.61
2022-11-25T08:27:19.388Z,10.00
2022-11-25T08:37:19.398Z,10.55
2022-11-25T08:47:19.377Z,11.01
2022-11-25T08:57:19.460Z,11.21
2022-11-25T09:07:19.585Z,11.47
2022-11-25T09:17:19.780Z,12.19
2022-11-25T09:27:19.434Z,13.09
2022-11-25T09:37:19.498Z,13.21
2022-11-25T09:47:19.480Z,13.07
2022-11-25T09:57:19.669Z,13.04
2022-11-25T10:07:19.521Z,13.68
2022-11-25T10:17:19.509Z,14.50
2022-11-25T10:27:19.603Z,14.80
2022-11-25T10:37:19.517Z,14.98
2022-11-25T10:47:19.590Z,14.91
2022-11-25T10:57:19.618Z,14.51
2022-11-25T11:07:19.631Z,14.28
2022-11-25T11:17:19.578Z,14.38
2022-11-25T11:27:19.561Z,14.60
2022-11-25T11:37:19.677Z,14.83
2022-11-25T11:47:22.694Z,15.11
2022-11-25T11:57:22.665Z,15.25
2022-11-25T12:07:22.792Z,15.30
2022-11-25T12:17:22.679Z,15.36
2022-11-25T12:27:22.661Z,15.26
2022-11-25T12:37:22.787Z,14.98
2022-11-25T12:47:22.705Z,14.57
2022-11-25T12:57:22.760Z,14.30
2022-11-25T13:07:22.887Z,14.29
2022-11-25T13:17:23.215Z,14.53
2022-11-25T13:27:23.808Z,14.77
2022-11-25T13:37:23.844Z,14.91
2022-11-25T13:47:23.773Z,14.87
2022-11-25T13:57:23.858Z,14.79
2022-11-25T14:07:23.833Z,14.80
2022-11-25T14:17:23.992Z,14.82
2022-11-25T14:27:23.813Z,14.54
2022-11-25T14:37:23.924Z,14.20
2022-11-25T14:47:23.837Z,13.99
2022-11-25T14:57:23.961Z,13.72
2022-11-25T15:07:30.830Z,13.43
2022-11-25T15:17:26.988Z,13.13
2022-11-25T15:27:26.950Z,12.87
2022-11-25T15:37:26.923Z,12.68
2022-11-25T15:47:27.002Z,12.47
2022-11-25T15:57:26.903Z,12.22
2022-11-25T16:07:27.142Z,12.05
2022-11-25T16:17:27.014Z,11.98
2022-11-25T16:27:27.165Z,11.93
2022-11-25T16:37:27.130Z,11.88
2022-11-25T16:47:27.112Z,11.85
2022-11-25T16:57:27.041Z,11.82
2022-11-25T17:07:34.684Z,11.78
2022-11-25T17:17:29.263Z,11.75
2022-11-25T17:27:30.125Z,11.73
2022-11-25T17:37:32.172Z,11.72
2022-11-25T17:47:32.107Z,11.72
2022-11-25T17:57:32.082Z,11.70
2022-11-25T18:07:32.207Z,11.71
2022-11-25T18:17:32.131Z,11.73
2022-11-25T18:27:32.220Z,11.72
2022-11-25T18:37:32.169Z,11.67
2022-11-25T18:47:32.259Z,11.59
2022-11-25T18:57:32.219Z,11.54
2022-11-25T19:07:32.209Z,11.57
2022-11-25T19:17:32.250Z,11.62
2022-11-25T19:27:32.339Z,11.64
2022-11-25T19:37:32.171Z,11.59
2022-11-25T19:47:32.185Z,11.48
2022-11-25T19:57:32.255Z,11.39
2022-11-25T20:07:32.416Z,11.31
2022-11-25T20:17:32.270Z,11.05
2022-11-25T20:27:33.741Z,10.64
2022-11-25T20:37:36.228Z,10.36
2022-11-25T20:47:36.366Z,10.23
2022-11-25T20:57:36.765Z,10.03
2022-11-25T21:07:37.415Z,9.69
2022-11-25T21:17:37.407Z,9.31
2022-11-25T21:27:37.433Z,9.01
2022-11-25T21:37:37.336Z,8.79
2022-11-25T21:47:37.634Z,8.67
2022-11-25T21:57:37.419Z,8.60
2022-11-25T22:07:37.502Z,8.41
2022-11-25T22:17:37.467Z,8.17
2022-11-25T22:27:37.552Z,7.90
2022-11-25T22:37:37.467Z,7.65
2022-11-25T22:47:37.555Z,7.44
2022-11-25T22:57:37.586Z,7.28
2022-11-25T23:07:37.562Z,7.13
2022-11-25T23:17:37.590Z,6.98
2022-11-25T23:27:37.563Z,6.87
2022-11-25T23:37:37.610Z,6.88
2022-11-25T23:47:37.575Z,7.00
2022-11-25T23:57:37.584Z,7.24
